NO-0001 weather

Haga Airfield
Akershus, Norway

Public forecast

Using degrees Celsius for public forecast. Weather courtesy of forecast.io.

METAR (pilot weather report)

Closest report is Oslo Gardermoen Airport, 13.4 nm (24.7 km) NW. Retrieved 2019/05/23 02:20 UTC (25 minutes ago):

ENGM 230220Z 17010KT 9999 FEW011 OVC015 11/08 Q1008

TAF (pilot weather forecast)

Forecast is more than 12 hours old.

Closest forecast is Oslo Gardermoen Airport, 13.4 nm (24.7 km) NW. Retrieved 2019/05/22 00:57 UTC (1 day ago):

TAF ENGM 222300Z 2300/2324 19010KT 9999 FEW005 BKN010 PROB40 2300/2304 3000 BR BKN006 BECMG 2304/2306 FEW040 PROB40 TEMPO 2321/2324 4000 SHRA BKN009 SCT018CB